Sierra City, California
Current Conditions -  °F | °C
As of 1:52 PM on Thursday 27 Nov 2014 (Local Time) from KBLU Reporting Station
Clear Clear  
Wind Chill: 15°   Ceiling: Unl
Heat Index: 15°   Visibility: 10mi
Dew Point: -3°   Wind: 12mph
Humidity: 29%   Direction: 160°SSE
Pressure: 30.25"   Gusts: NA
Location:  39.57°N, 120.64°W
Report Text: KBLU 272152Z AUTO 16010KT 10SM CLR 15/M03 A3025 RMK AO2 SLP184 T01501028
Loading
Personal Weather Stations






























Interactive Weather Map New forecast layout! Learn more

10-Day Weather Forecast

Advertisements
Track Severe Weather on mobile